Terminal Aerodrome Forecast
Issued by NWS

Home | Current Version | Previous Version | Text Only | Print | Product List | Glossary On
Versions: 1 2 3 4 5 6 7 8 9 10 11 12 13 14 15 16 17 18 19
000
FTUS46 KMTR 300500
TAFMRY
TAF
KMRY 300522Z 3006/3106 22005KT 4SM -DZ BR OVC003
     FM301800 28007KT P6SM BKN009
     FM310300 24004KT P6SM OVC004=

USA.gov is the U.S. government's official web portal to all federal, state and local government web resources and services.